Time;durP1;ratioP1;P1;durP2;ratioP2;P2;SDS_P1;SDS_P2;PMS_P1;PMS_P2;Temp;Humidity;BMP_temperature;BMP_pressure;BME280_temperature;BME280_humidity;BME280_pressure;Samples;Min_cycle;Max_cycle;Signal;HPM_P1;HPM_P2
2022/09/22 00:01:27;;;;;;;8.80;4.70;;;9.90;99.90;;;;;;5035039;28;20261;-78
2022/09/22 00:03:57;;;;;;;8.20;4.30;;;9.90;99.90;;;;;;5018555;28;20234;-80
2022/09/22 00:06:33;;;;;;;6.13;4.00;;;9.80;99.90;;;;;;5013690;28;20261;-77
2022/09/22 00:09:01;;;;;;;5.20;3.90;;;9.80;99.90;;;;;;5015791;28;20202;-78
2022/09/22 00:11:49;;;;;;;6.60;4.40;;;9.70;99.90;;;;;;5015707;28;20194;-78
2022/09/22 00:14:31;;;;;;;7.00;4.40;;;9.70;99.90;;;;;;5031952;28;20280;-78
2022/09/22 00:17:00;;;;;;;6.33;4.00;;;9.70;99.90;;;;;;5015490;28;20206;-77
2022/09/22 00:19:31;;;;;;;7.57;4.13;;;9.70;99.90;;;;;;5015864;28;20265;-77
2022/09/22 00:21:58;;;;;;;5.73;3.87;;;9.70;99.90;;;;;;5015633;28;20302;-77
2022/09/22 00:24:26;;;;;;;5.47;3.70;;;9.70;99.90;;;;;;5015235;28;20582;-77
2022/09/22 00:26:56;;;;;;;6.43;3.77;;;9.60;99.90;;;;;;5015532;28;20656;-77
2022/09/22 00:29:24;;;;;;;10.27;3.60;;;9.60;99.90;;;;;;5015533;28;20191;-78
2022/09/22 00:31:51;;;;;;;6.70;4.00;;;9.50;99.90;;;;;;5033531;28;20202;-78
2022/09/22 00:34:21;;;;;;;7.50;4.03;;;9.40;99.90;;;;;;5015757;28;20233;-77
2022/09/22 00:36:49;;;;;;;7.57;3.80;;;9.30;99.90;;;;;;5015552;28;20237;-78
2022/09/22 00:39:17;;;;;;;6.03;3.80;;;9.30;99.90;;;;;;5033298;28;20191;-77
2022/09/22 00:41:46;;;;;;;6.27;4.07;;;9.30;99.90;;;;;;5017876;28;20219;-77
2022/09/22 00:44:25;;;;;;;7.43;3.83;;;9.20;99.90;;;;;;5015793;28;20206;-77
2022/09/22 00:47:00;;;;;;;6.80;3.80;;;9.20;99.90;;;;;;5015498;28;20209;-77
2022/09/22 00:49:55;;;;;;;7.83;3.93;;;9.20;99.90;;;;;;5015139;28;20304;-78
2022/09/22 00:52:27;;;;;;;5.63;3.70;;;9.30;99.90;;;;;;5033294;28;20191;-77
2022/09/22 00:55:07;;;;;;;8.53;4.50;;;9.30;99.90;;;;;;5015242;28;20254;-78
2022/09/22 00:57:36;;;;;;;7.43;4.50;;;9.30;99.90;;;;;;5033137;28;20660;-77
2022/09/22 01:00:08;;;;;;;6.97;4.30;;;9.30;99.90;;;;;;4999060;28;20290;-78
2022/09/22 01:02:38;;;;;;;7.53;4.57;;;9.30;99.90;;;;;;5015056;28;20664;-78
2022/09/22 01:05:06;;;;;;;7.93;5.20;;;9.40;99.90;;;;;;5014792;28;20195;-78
2022/09/22 01:07:35;;;;;;;9.73;5.43;;;9.20;99.90;;;;;;5015379;28;20200;-78
2022/09/22 01:10:02;;;;;;;8.17;5.50;;;9.20;99.90;;;;;;5017959;28;20195;-78
2022/09/22 01:12:31;;;;;;;9.43;5.57;;;9.20;99.90;;;;;;5014961;28;20265;-77
2022/09/22 01:15:04;;;;;;;10.17;6.07;;;9.20;99.90;;;;;;5014949;28;20226;-78
2022/09/22 01:17:53;;;;;;;10.03;5.93;;;9.30;99.90;;;;;;5016823;28;20235;-78
2022/09/22 01:20:32;;;;;;;9.97;6.17;;;9.40;99.90;;;;;;5018948;28;20191;-78
2022/09/22 01:23:20;;;;;;;14.10;6.87;;;9.40;99.90;;;;;;5036348;28;20222;-78
2022/09/22 01:26:14;;;;;;;10.43;6.50;;;9.40;99.90;;;;;;5019544;28;20648;-79
2022/09/22 01:29:23;;;;;;;10.43;7.00;;;9.40;99.90;;;;;;5038652;28;20202;-77
2022/09/22 01:32:15;;;;;;;11.23;6.77;;;9.30;99.90;;;;;;4957166;28;20198;-78
2022/09/22 01:35:04;;;;;;;9.33;6.80;;;9.40;99.90;;;;;;5087377;23;20334;-78
2022/09/22 01:38:02;;;;;;;11.63;7.37;;;9.40;99.90;;;;;;5119191;27;20181;-77
2022/09/22 01:41:01;;;;;;;11.20;7.03;;;9.40;99.90;;;;;;5119242;27;20661;-78
2022/09/22 01:43:34;;;;;;;11.20;7.63;;;9.40;99.90;;;;;;5099519;27;20322;-78
2022/09/22 01:46:11;;;;;;;15.03;8.07;;;9.50;99.90;;;;;;5119076;27;20695;-77
2022/09/22 01:48:43;;;;;;;11.10;7.60;;;9.40;99.90;;;;;;5119214;27;20230;-77
2022/09/22 01:51:20;;;;;;;12.50;8.63;;;9.30;99.90;;;;;;5119058;27;20713;-77
2022/09/22 01:53:58;;;;;;;12.17;8.23;;;9.30;99.90;;;;;;5119122;27;20547;-77
2022/09/22 01:56:35;;;;;;;15.83;8.53;;;9.30;99.90;;;;;;5137372;27;20188;-78
2022/09/22 01:59:06;;;;;;;13.30;8.10;;;9.40;99.90;;;;;;5120661;27;20196;-78
2022/09/22 02:01:52;;;;;;;14.53;9.00;;;9.40;99.90;;;;;;5118555;27;20649;-78
2022/09/22 02:04:46;;;;;;;12.93;9.00;;;9.50;99.90;;;;;;5136897;27;20233;-78
2022/09/22 02:07:23;;;;;;;13.43;8.87;;;9.50;99.90;;;;;;5073513;28;20212;-77
2022/09/22 02:09:51;;;;;;;13.40;8.87;;;9.60;99.90;;;;;;5073609;28;20205;-77
2022/09/22 02:12:18;;;;;;;14.73;9.00;;;9.60;99.90;;;;;;5073448;28;20216;-78
2022/09/22 02:14:46;;;;;;;14.20;8.80;;;9.50;99.90;;;;;;5073609;28;20190;-78
2022/09/22 02:17:14;;;;;;;13.03;8.93;;;9.50;99.90;;;;;;5056746;28;20205;-78
2022/09/22 02:19:42;;;;;;;14.57;9.07;;;9.40;99.90;;;;;;5073442;28;20220;-77
2022/09/22 02:22:10;;;;;;;14.70;9.17;;;9.40;99.90;;;;;;5056771;28;20234;-77
2022/09/22 02:24:38;;;;;;;13.27;8.83;;;9.40;99.90;;;;;;5056438;28;20212;-78
2022/09/22 02:27:11;;;;;;;12.27;8.43;;;9.40;99.90;;;;;;5073275;28;20190;-78
2022/09/22 02:29:43;;;;;;;13.83;8.20;;;9.50;99.90;;;;;;5055568;28;20209;-78
2022/09/22 02:32:18;;;;;;;13.50;8.33;;;9.40;99.90;;;;;;5073249;28;20206;-78
2022/09/22 02:34:45;;;;;;;13.37;8.30;;;9.50;99.90;;;;;;5072528;28;20328;-79
2022/09/22 02:37:47;;;;;;;14.57;8.67;;;9.60;99.90;;;;;;5072899;28;20617;-78
2022/09/22 02:40:31;;;;;;;13.40;8.30;;;9.50;99.90;;;;;;5013064;28;20200;-77
2022/09/22 02:43:05;;;;;;;13.53;8.20;;;9.50;99.90;;;;;;5012959;28;20254;-78
2022/09/22 02:45:42;;;;;;;13.37;8.97;;;9.60;99.90;;;;;;5016138;28;20908;-78
2022/09/22 02:48:17;;;;;;;13.63;8.67;;;9.70;99.90;;;;;;5032827;28;20274;-78
2022/09/22 02:50:44;;;;;;;14.20;8.80;;;9.60;99.90;;;;;;5033088;28;20214;-78
2022/09/22 02:53:14;;;;;;;13.60;9.03;;;9.60;99.90;;;;;;5000388;28;20227;-77
2022/09/22 02:55:51;;;;;;;13.33;8.47;;;9.60;99.90;;;;;;5016233;28;20199;-78
2022/09/22 02:58:18;;;;;;;15.23;9.17;;;9.70;99.90;;;;;;5016564;28;20277;-78
2022/09/22 03:00:55;;;;;;;14.40;8.93;;;9.70;99.90;;;;;;5016433;28;20219;-78
2022/09/22 03:03:22;;;;;;;14.23;9.80;;;9.80;99.90;;;;;;5032374;28;20229;-78
2022/09/22 03:05:49;;;;;;;12.90;9.30;;;9.70;99.90;;;;;;5015908;28;20213;-78
2022/09/22 03:08:15;;;;;;;18.27;10.37;;;9.50;99.90;;;;;;5032450;28;20361;-77
2022/09/22 03:10:43;;;;;;;14.37;9.67;;;9.70;99.90;;;;;;5015757;28;20207;-78
2022/09/22 03:13:21;;;;;;;15.73;9.93;;;9.60;99.90;;;;;;5015132;28;20325;-77
2022/09/22 03:15:48;;;;;;;19.93;10.67;;;9.60;99.90;;;;;;5030555;28;20250;-78
2022/09/22 03:18:16;;;;;;;16.97;10.13;;;9.60;99.90;;;;;;5115125;28;20794;-78
2022/09/22 03:20:43;;;;;;;21.23;10.57;;;9.60;99.90;;;;;;5088950;28;20280;-78
2022/09/22 03:23:10;;;;;;;16.43;10.20;;;9.60;99.90;;;;;;5096859;28;20668;-78
2022/09/22 03:25:38;;;;;;;15.87;10.23;;;9.40;99.90;;;;;;5096215;28;20230;-78
2022/09/22 03:28:04;;;;;;;18.80;11.30;;;9.60;99.90;;;;;;5096555;28;20222;-78
2022/09/22 03:30:31;;;;;;;20.40;11.20;;;9.50;99.90;;;;;;5096392;28;20196;-78
2022/09/22 03:33:00;;;;;;;18.03;11.07;;;9.60;99.90;;;;;;5095867;28;20209;-79
2022/09/22 03:35:26;;;;;;;17.33;11.23;;;9.60;99.90;;;;;;5096408;28;20218;-78
2022/09/22 03:37:53;;;;;;;19.43;11.47;;;9.50;99.90;;;;;;5096792;28;20227;-79
2022/09/22 03:40:21;;;;;;;18.70;11.37;;;9.50;99.90;;;;;;5096327;28;20188;-79
2022/09/22 03:42:48;;;;;;;19.90;10.97;;;9.60;99.90;;;;;;5094796;28;20227;-78
2022/09/22 03:45:15;;;;;;;17.73;11.27;;;9.70;99.90;;;;;;5070473;28;20205;-79
2022/09/22 03:47:45;;;;;;;18.70;11.60;;;9.70;99.90;;;;;;5094303;28;20215;-79
2022/09/22 03:50:15;;;;;;;18.77;11.87;;;9.80;99.90;;;;;;5079005;28;20197;-79
2022/09/22 03:52:43;;;;;;;19.77;11.27;;;9.60;99.90;;;;;;5096310;28;20325;-79
2022/09/22 03:55:13;;;;;;;20.00;11.73;;;9.80;99.90;;;;;;5095872;28;20295;-78
2022/09/22 03:57:42;;;;;;;19.67;11.27;;;9.70;99.90;;;;;;5096253;28;20201;-78
2022/09/22 04:00:09;;;;;;;19.43;12.07;;;9.90;99.90;;;;;;5096096;28;20193;-78
2022/09/22 04:02:36;;;;;;;21.17;12.43;;;9.80;99.90;;;;;;5096331;28;20244;-78
2022/09/22 04:05:04;;;;;;;21.77;12.17;;;9.60;99.90;;;;;;5095633;28;20193;-79
2022/09/22 04:07:31;;;;;;;21.10;12.00;;;9.60;99.90;;;;;;5113007;28;20199;-78
2022/09/22 04:09:57;;;;;;;19.67;11.93;;;9.70;99.90;;;;;;5096191;28;20193;-79
2022/09/22 04:12:46;;;;;;;17.50;11.17;;;9.70;99.90;;;;;;5113540;28;20694;-79
2022/09/22 04:15:14;;;;;;;20.97;11.80;;;9.70;99.90;;;;;;5095692;28;20271;-78
2022/09/22 04:17:54;;;;;;;20.60;12.07;;;9.70;99.90;;;;;;5095192;28;20204;-78
2022/09/22 04:20:21;;;;;;;19.53;11.40;;;9.70;99.90;;;;;;5091997;28;20197;-78
2022/09/22 04:22:49;;;;;;;18.90;11.53;;;9.70;99.90;;;;;;5090226;28;20231;-78
2022/09/22 04:25:16;;;;;;;19.30;11.57;;;9.80;99.90;;;;;;5075170;28;20193;-79
2022/09/22 04:27:46;;;;;;;19.53;11.60;;;9.70;99.90;;;;;;5108439;28;20199;-78
2022/09/22 04:30:13;;;;;;;22.77;12.97;;;9.70;99.90;;;;;;5095217;28;20193;-78
2022/09/22 04:32:40;;;;;;;22.90;12.47;;;9.60;99.90;;;;;;5112644;28;20197;-77
2022/09/22 04:35:08;;;;;;;21.70;11.90;;;9.60;99.90;;;;;;5112074;28;20232;-78
2022/09/22 04:37:44;;;;;;;21.33;11.83;;;9.60;99.90;;;;;;5112042;28;20199;-78
2022/09/22 04:40:11;;;;;;;19.47;11.93;;;9.60;99.90;;;;;;5095280;28;20197;-77
2022/09/22 04:42:38;;;;;;;20.23;11.73;;;9.70;99.90;;;;;;5112086;28;20466;-77
2022/09/22 04:45:09;;;;;;;19.30;11.77;;;9.80;99.90;;;;;;5106694;28;20196;-77
2022/09/22 04:47:36;;;;;;;20.87;12.20;;;9.80;99.90;;;;;;5095392;28;20192;-76
2022/09/22 04:50:03;;;;;;;22.10;11.67;;;9.80;99.90;;;;;;5095241;28;20187;-77
2022/09/22 04:52:30;;;;;;;18.73;11.63;;;9.90;99.90;;;;;;5078530;28;20196;-77
2022/09/22 04:54:57;;;;;;;18.40;11.83;;;9.90;99.90;;;;;;5095232;28;20199;-78
2022/09/22 04:57:24;;;;;;;21.87;12.33;;;10.10;99.90;;;;;;5095110;28;20632;-77
2022/09/22 04:59:50;;;;;;;23.50;11.97;;;10.00;99.90;;;;;;5094910;28;20537;-78
2022/09/22 05:02:17;;;;;;;20.60;11.87;;;9.90;99.90;;;;;;5095207;28;20292;-77
2022/09/22 05:04:44;;;;;;;18.20;11.47;;;9.90;99.90;;;;;;5088660;28;20633;-77
2022/09/22 05:07:11;;;;;;;23.27;12.77;;;9.80;99.90;;;;;;5094761;28;20185;-78
2022/09/22 05:09:40;;;;;;;19.20;11.90;;;9.90;99.90;;;;;;5111796;28;20265;-78
2022/09/22 05:12:07;;;;;;;19.43;11.63;;;10.00;99.90;;;;;;5078170;28;20649;-79
2022/09/22 05:14:34;;;;;;;19.50;12.17;;;10.00;99.90;;;;;;5112581;28;20242;-78
2022/09/22 05:17:09;;;;;;;20.17;12.20;;;10.10;99.90;;;;;;5094791;28;20192;-78
2022/09/22 05:19:35;;;;;;;19.77;11.67;;;10.10;99.90;;;;;;5113136;28;20560;-78
2022/09/22 05:22:08;;;;;;;19.70;11.80;;;10.30;99.90;;;;;;5094925;28;20189;-77
2022/09/22 05:24:42;;;;;;;20.03;11.40;;;10.10;99.90;;;;;;5112903;28;20567;-78
2022/09/22 05:27:12;;;;;;;18.73;11.20;;;10.10;99.90;;;;;;5077880;28;20192;-78
2022/09/22 05:29:39;;;;;;;16.30;11.30;;;10.20;99.90;;;;;;5095329;28;20185;-79
2022/09/22 05:32:06;;;;;;;18.13;11.70;;;10.20;99.90;;;;;;5103169;22;20208;-79
2022/09/22 05:34:33;;;;;;;20.40;12.17;;;10.30;99.90;;;;;;5104380;28;20581;-79
2022/09/22 05:37:03;;;;;;;19.50;11.50;;;10.40;99.90;;;;;;5094966;28;20556;-78
2022/09/22 05:39:31;;;;;;;21.47;11.67;;;10.40;99.90;;;;;;5111700;28;20207;-78
2022/09/22 05:42:07;;;;;;;19.03;12.23;;;10.50;99.90;;;;;;5111775;28;20193;-78
2022/09/22 05:44:36;;;;;;;19.43;12.63;;;10.40;99.90;;;;;;5111349;28;20265;-79
2022/09/22 05:47:03;;;;;;;15.30;10.47;;;10.40;99.90;;;;;;5111634;28;20189;-79
2022/09/22 05:49:30;;;;;;;18.40;12.20;;;10.50;99.90;;;;;;5111753;28;20201;-79
2022/09/22 05:51:58;;;;;;;18.50;11.37;;;10.60;99.90;;;;;;5111702;28;20223;-77
2022/09/22 05:54:24;;;;;;;18.33;12.03;;;10.50;99.90;;;;;;5111756;28;20199;-79
2022/09/22 05:56:51;;;;;;;21.80;12.43;;;10.50;99.90;;;;;;5112924;28;20217;-79
2022/09/22 05:59:18;;;;;;;18.70;11.70;;;10.60;99.90;;;;;;5112716;28;20553;-77
2022/09/22 06:01:59;;;;;;;18.37;11.13;;;10.60;99.90;;;;;;5111589;28;20228;-76
2022/09/22 06:04:31;;;;;;;17.47;11.17;;;10.70;99.90;;;;;;5112705;28;20228;-77
2022/09/22 06:06:59;;;;;;;16.03;11.60;;;10.80;99.90;;;;;;5116421;28;20197;-75
2022/09/22 06:09:26;;;;;;;18.47;11.80;;;10.80;99.90;;;;;;5116231;27;20195;-76
2022/09/22 06:11:52;;;;;;;16.67;11.17;;;10.70;99.90;;;;;;5114813;28;20694;-79
2022/09/22 06:14:19;;;;;;;16.03;11.03;;;10.80;99.90;;;;;;5114528;28;20217;-81
2022/09/22 06:16:57;;;;;;;17.07;11.53;;;10.90;99.90;;;;;;5114749;28;20552;-80
2022/09/22 06:19:40;;;;;;;18.60;11.63;;;11.00;99.90;;;;;;5114773;28;20573;-80
2022/09/22 06:22:17;;;;;;;19.07;11.40;;;11.00;99.90;;;;;;5116384;28;20193;-84
2022/09/22 06:24:44;;;;;;;16.77;11.30;;;11.10;99.90;;;;;;5114322;28;20228;-82
2022/09/22 06:27:28;;;;;;;19.03;11.70;;;11.20;99.90;;;;;;5108662;28;20300;-79
2022/09/22 06:29:55;;;;;;;20.67;11.40;;;11.30;99.90;;;;;;5266607;22;20582;-80
2022/09/22 06:32:23;;;;;;;14.77;10.90;;;11.30;99.90;;;;;;5083261;22;20709;-78
2022/09/22 06:34:49;;;;;;;18.98;12.73;;;11.30;99.90;;;;;;5076084;28;20867;-75
2022/09/22 06:37:22;;;;;;;17.93;11.27;;;11.30;99.90;;;;;;5077069;28;20642;-79
2022/09/22 06:39:49;;;;;;;16.53;11.50;;;11.40;99.90;;;;;;5076346;28;20205;-77
2022/09/22 06:42:16;;;;;;;17.97;11.53;;;11.50;99.90;;;;;;5095108;28;20193;-83
2022/09/22 06:44:52;;;;;;;18.00;11.30;;;11.50;99.90;;;;;;5077115;28;20217;-81
2022/09/22 06:47:19;;;;;;;20.73;12.47;;;11.60;99.90;;;;;;5069122;28;20193;-80
2022/09/22 06:50:04;;;;;;;18.13;11.60;;;11.60;99.90;;;;;;5077147;28;20507;-79
2022/09/22 06:52:31;;;;;;;17.20;11.47;;;11.60;99.90;;;;;;5076779;28;20643;-78
2022/09/22 06:55:02;;;;;;;17.47;11.00;;;11.60;99.90;;;;;;5076928;28;20304;-79
2022/09/22 06:57:37;;;;;;;17.37;11.40;;;11.70;99.90;;;;;;5067875;28;20283;-77
2022/09/22 07:00:05;;;;;;;15.73;10.97;;;11.90;99.90;;;;;;5056825;28;20190;-78
2022/09/22 07:02:34;;;;;;;17.90;11.93;;;11.70;99.90;;;;;;5074323;28;20606;-78
2022/09/22 07:05:01;;;;;;;16.27;11.43;;;11.70;99.90;;;;;;5092112;28;20210;-78
2022/09/22 07:07:30;;;;;;;15.67;10.87;;;11.80;99.90;;;;;;5076648;28;20205;-77
2022/09/22 07:10:00;;;;;;;15.60;11.23;;;11.90;99.90;;;;;;5093384;28;20204;-78
2022/09/22 07:12:27;;;;;;;16.13;11.20;;;11.90;99.90;;;;;;5092774;28;20208;-78
2022/09/22 07:14:55;;;;;;;17.93;11.70;;;12.00;99.90;;;;;;5059310;28;20221;-78
2022/09/22 07:17:22;;;;;;;17.03;11.03;;;11.90;99.90;;;;;;5058714;28;20550;-77
2022/09/22 07:19:56;;;;;;;16.67;10.67;;;11.90;99.90;;;;;;5074859;28;20198;-81
2022/09/22 07:22:24;;;;;;;16.03;11.00;;;12.00;99.90;;;;;;5059314;28;20643;-78
2022/09/22 07:24:51;;;;;;;15.57;11.33;;;12.10;99.90;;;;;;5058017;28;20240;-78
2022/09/22 07:27:26;;;;;;;18.40;11.43;;;12.00;99.90;;;;;;5072906;28;20201;-78
2022/09/22 07:29:58;;;;;;;17.90;10.50;;;12.10;99.90;;;;;;5078249;28;20219;-80
2022/09/22 07:32:34;;;;;;;15.87;10.73;;;12.30;99.90;;;;;;5072150;28;20694;-78
2022/09/22 07:35:01;;;;;;;16.83;11.17;;;12.50;99.90;;;;;;5054123;28;20194;-77
2022/09/22 07:37:32;;;;;;;17.93;11.30;;;12.40;99.90;;;;;;5055815;28;20198;-77
2022/09/22 07:40:02;;;;;;;19.47;12.03;;;12.40;99.90;;;;;;5024275;28;20191;-71
2022/09/22 07:42:32;;;;;;;17.13;11.00;;;12.50;99.90;;;;;;5035897;28;20249;-77
2022/09/22 07:45:11;;;;;;;15.90;11.57;;;12.60;99.90;;;;;;5063398;28;20230;-77
2022/09/22 07:50:24;;;;;;;15.33;11.90;;;12.50;99.90;;;;;;5049650;28;20202;-77
2022/09/22 07:53:02;;;;;;;18.13;12.13;;;12.50;99.90;;;;;;5032008;28;20194;-80
2022/09/22 07:55:48;;;;;;;20.57;11.93;;;12.50;99.90;;;;;;5054675;28;20285;-77
2022/09/22 07:58:15;;;;;;;16.60;11.90;;;12.70;99.90;;;;;;5048764;28;20284;-78
2022/09/22 08:00:46;;;;;;;16.23;11.87;;;12.90;99.90;;;;;;5046901;28;20194;-78
2022/09/22 08:03:13;;;;;;;20.97;12.27;;;13.20;99.90;;;;;;5071723;28;20224;-79
2022/09/22 08:06:04;;;;;;;16.90;12.20;;;13.20;99.90;;;;;;5055069;28;20194;-79
2022/09/22 08:08:33;;;;;;;17.53;11.53;;;13.30;99.90;;;;;;5055276;28;20183;-78
2022/09/22 08:11:28;;;;;;;17.63;12.00;;;13.50;99.90;;;;;;5055349;28;20248;-78
2022/09/22 08:14:22;;;;;;;17.13;11.40;;;13.40;99.90;;;;;;5083443;22;20230;-79
2022/09/22 08:16:56;;;;;;;14.00;10.70;;;13.60;99.90;;;;;;5112359;28;20201;-77
2022/09/22 08:19:53;;;;;;;15.07;10.60;;;14.00;99.90;;;;;;5111491;28;20293;-80
2022/09/22 08:22:36;;;;;;;17.97;10.10;;;14.30;99.90;;;;;;5108185;27;20549;-77
2022/09/22 08:25:04;;;;;;;15.20;10.13;;;14.40;99.90;;;;;;5112031;27;20324;-80
2022/09/22 08:27:32;;;;;;;16.07;9.90;;;14.60;99.90;;;;;;5126676;27;20220;-79
2022/09/22 08:29:59;;;;;;;12.30;8.93;;;14.40;99.90;;;;;;5124605;27;20644;-77
2022/09/22 08:32:40;;;;;;;14.70;8.77;;;14.30;99.90;;;;;;5128126;27;20188;-82
2022/09/22 08:35:16;;;;;;;11.70;8.30;;;14.50;99.90;;;;;;5098363;28;20192;-76
2022/09/22 08:37:44;;;;;;;12.93;8.00;;;14.70;99.90;;;;;;5096190;28;20192;-78
2022/09/22 08:40:22;;;;;;;10.07;7.67;;;15.00;99.90;;;;;;5116232;27;20644;-79
2022/09/22 08:42:54;;;;;;;9.83;6.33;;;15.50;99.90;;;;;;5126977;27;20276;-79
2022/09/22 08:45:35;;;;;;;8.30;6.13;;;16.00;99.90;;;;;;5124854;27;20307;-79
2022/09/22 08:51:52;;;;;;;9.20;5.10;;;17.00;99.90;;;;;;5051671;28;20665;-79
2022/09/22 08:55:22;;;;;;;6.20;4.73;;;17.40;99.90;;;;;;5055380;28;20288;-76
2022/09/22 08:58:01;;;;;;;7.00;4.57;;;17.30;99.90;;;;;;5060680;28;20213;-76
2022/09/22 09:00:38;;;;;;;5.90;3.87;;;17.40;99.90;;;;;;5051126;28;20202;-75
2022/09/22 09:03:39;;;;;;;5.20;3.80;;;17.50;99.90;;;;;;5068229;28;20206;-81
2022/09/22 09:07:00;;;;;;;5.87;3.90;;;17.70;99.90;;;;;;5037256;28;20281;-83
2022/09/22 09:09:53;;;;;;;6.20;3.83;;;18.10;99.90;;;;;;5053417;28;20221;-76
2022/09/22 09:12:51;;;;;;;5.93;3.20;;;18.00;99.90;;;;;;5097298;22;20172;-80
2022/09/22 09:16:19;;;;;;;4.90;3.20;;;18.10;99.90;;;;;;5043258;28;20201;-83
2022/09/22 09:19:32;;;;;;;3.53;2.77;;;18.20;99.90;;;;;;4963143;28;20276;-81
2022/09/22 09:22:30;;;;;;;4.27;3.30;;;17.80;99.90;;;;;;4975032;28;20257;-80
2022/09/22 09:25:21;;;;;;;3.80;2.63;;;17.70;99.90;;;;;;4973930;28;20209;-77
2022/09/22 09:28:04;;;;;;;3.40;2.80;;;17.00;99.90;;;;;;5071087;22;20606;-79
2022/09/22 09:31:06;;;;;;;4.93;2.80;;;16.50;99.90;;;;;;5108216;28;20193;-79
2022/09/22 09:34:01;;;;;;;5.13;2.37;;;16.30;99.90;;;;;;5120187;28;20632;-79
2022/09/22 09:36:41;;;;;;;2.90;2.20;;;16.10;99.90;;;;;;5102307;27;20252;-74
2022/09/22 09:39:19;;;;;;;4.80;2.50;;;16.40;99.90;;;;;;5126543;27;20192;-75
2022/09/22 09:41:48;;;;;;;3.40;2.70;;;16.60;99.90;;;;;;5116105;27;20257;-84
2022/09/22 09:44:37;;;;;;;4.57;2.50;;;16.70;99.90;;;;;;5112289;27;20695;-81
2022/09/22 09:47:32;;;;;;;3.87;2.20;;;17.20;99.90;;;;;;5112358;27;20231;-77
2022/09/22 09:49:59;;;;;;;3.93;2.40;;;17.40;99.90;;;;;;5124183;27;20203;-75
2022/09/22 09:52:27;;;;;;;3.60;2.60;;;17.60;99.90;;;;;;5117157;27;20192;-77
2022/09/22 09:54:54;;;;;;;4.10;2.50;;;18.20;99.90;;;;;;5093974;27;20306;-77
2022/09/22 09:57:22;;;;;;;6.63;2.27;;;18.50;99.90;;;;;;5131260;27;20640;-79
2022/09/22 10:00:35;;;;;;;3.47;2.10;;;18.90;99.90;;;;;;5117184;27;20211;-80
2022/09/22 10:03:02;;;;;;;2.90;2.00;;;19.40;99.90;;;;;;5131590;27;20196;-76
2022/09/22 10:05:31;;;;;;;2.87;2.20;;;19.80;99.90;;;;;;5094032;27;20222;-76
2022/09/22 10:08:02;;;;;;;2.87;2.00;;;20.00;99.90;;;;;;5131295;27;20197;-75
2022/09/22 10:10:29;;;;;;;2.47;2.20;;;19.60;99.90;;;;;;5116417;27;20200;-78
2022/09/22 10:13:04;;;;;;;4.33;2.30;;;19.40;99.90;;;;;;5124704;27;20189;-78
2022/09/22 10:15:37;;;;;;;2.83;2.20;;;19.10;99.90;;;;;;5119346;27;20197;-79
2022/09/22 10:18:22;;;;;;;3.20;2.10;;;18.90;99.90;;;;;;5129111;27;20198;-79
2022/09/22 10:21:14;;;;;;;1.80;1.60;;;18.30;99.90;;;;;;5125267;27;20200;-80
2022/09/22 10:24:00;;;;;;;3.47;2.03;;;18.10;99.90;;;;;;5087103;27;20185;-78
2022/09/22 10:26:29;;;;;;;3.83;1.83;;;18.10;99.90;;;;;;5106999;27;20238;-79
2022/09/22 10:29:11;;;;;;;2.50;2.10;;;17.80;99.90;;;;;;5135511;27;20223;-79
2022/09/22 10:31:40;;;;;;;2.60;1.90;;;17.50;99.90;;;;;;5116331;27;20192;-79
2022/09/22 10:34:43;;;;;;;2.23;1.80;;;17.20;99.90;;;;;;5127754;27;20286;-84
2022/09/22 10:37:18;;;;;;;2.23;1.63;;;16.90;99.90;;;;;;5027516;28;20195;-80
2022/09/22 10:39:45;;;;;;;3.23;1.67;;;16.80;99.90;;;;;;5043143;28;20253;-80
2022/09/22 10:42:27;;;;;;;2.50;1.57;;;16.70;99.90;;;;;;5047226;28;20221;-79
2022/09/22 10:45:00;;;;;;;2.03;1.43;;;16.70;99.90;;;;;;5050022;28;20228;-74
2022/09/22 10:47:30;;;;;;;3.20;1.60;;;16.50;99.90;;;;;;5049529;28;20673;-76
2022/09/22 10:50:27;;;;;;;2.67;1.50;;;16.60;99.90;;;;;;5051900;28;20213;-76
2022/09/22 10:53:00;;;;;;;2.80;1.70;;;16.50;99.90;;;;;;5046179;28;20205;-78
2022/09/22 10:55:40;;;;;;;2.43;1.77;;;16.30;99.90;;;;;;5036055;28;20194;-79
2022/09/22 10:58:22;;;;;;;1.90;1.40;;;16.30;99.90;;;;;;5035851;28;20198;-75
2022/09/22 11:00:58;;;;;;;2.40;1.40;;;16.10;99.90;;;;;;5052402;28;20199;-75
2022/09/22 11:03:54;;;;;;;4.00;1.30;;;15.90;99.90;;;;;;5052271;28;20225;-76
2022/09/22 11:12:46;;;;;;;1.63;1.00;;;15.80;99.90;;;;;;5063166;28;20220;-76
2022/09/22 11:15:41;;;;;;;3.03;0.90;;;15.80;99.90;;;;;;5120777;27;20346;-75
2022/09/22 11:18:44;;;;;;;1.77;1.20;;;15.70;99.90;;;;;;5108430;27;20188;-76
2022/09/22 11:21:22;;;;;;;1.83;1.10;;;15.80;99.90;;;;;;5130149;27;20188;-76
2022/09/22 11:23:58;;;;;;;1.10;1.00;;;16.10;99.90;;;;;;5108335;27;20185;-80
2022/09/22 11:26:56;;;;;;;2.10;1.20;;;16.60;99.90;;;;;;5115466;27;20188;-74
2022/09/22 11:29:33;;;;;;;1.47;1.20;;;16.50;99.90;;;;;;5050691;28;20265;-77
2022/09/22 11:32:12;;;;;;;1.80;1.10;;;16.30;99.90;;;;;;5046888;28;20737;-79
2022/09/22 11:35:12;;;;;;;1.60;1.17;;;16.20;99.90;;;;;;5033715;28;20282;-79
2022/09/22 11:37:49;;;;;;;3.20;1.40;;;16.20;99.90;;;;;;5034349;28;20519;-76
2022/09/22 11:40:38;;;;;;;1.50;1.20;;;16.10;99.90;;;;;;5048434;28;20214;-78
2022/09/22 11:43:28;;;;;;;2.87;1.30;;;16.10;99.90;;;;;;5049414;28;20195;-77
2022/09/22 11:46:21;;;;;;;2.03;1.23;;;16.00;99.90;;;;;;5032762;28;20227;-79
2022/09/22 11:49:06;;;;;;;1.70;1.30;;;15.80;99.90;;;;;;5045610;28;20200;-76
2022/09/22 11:51:55;;;;;;;1.43;1.17;;;15.70;99.90;;;;;;5032598;28;20183;-77
2022/09/22 11:54:40;;;;;;;2.40;1.40;;;15.80;99.90;;;;;;5050447;28;20214;-77
2022/09/22 11:57:10;;;;;;;1.77;1.40;;;15.80;99.90;;;;;;5036613;28;20213;-75
2022/09/22 11:59:58;;;;;;;1.80;1.23;;;15.90;99.90;;;;;;5033168;28;20191;-79
2022/09/22 12:02:34;;;;;;;3.13;1.60;;;16.00;99.90;;;;;;5036506;28;20241;-77
2022/09/22 12:05:03;;;;;;;2.47;1.30;;;15.80;99.90;;;;;;5063354;27;20219;-77
2022/09/22 12:07:36;;;;;;;2.20;1.50;;;15.40;99.90;;;;;;5112774;27;20180;-76
2022/09/22 12:10:06;;;;;;;1.80;1.30;;;15.20;99.90;;;;;;5114711;27;20282;-76
2022/09/22 12:12:34;;;;;;;1.27;1.17;;;15.40;99.90;;;;;;5112147;27;20184;-77
2022/09/22 12:15:34;;;;;;;3.00;1.90;;;15.50;99.90;;;;;;5118202;27;20962;-77
2022/09/22 12:18:39;;;;;;;2.47;1.63;;;15.40;99.90;;;;;;5114808;27;20208;-76
2022/09/22 12:21:40;;;;;;;2.00;1.30;;;15.50;99.90;;;;;;5126182;27;20195;-76
2022/09/22 12:24:13;;;;;;;2.40;1.40;;;15.10;99.90;;;;;;5028994;28;20191;-79
2022/09/22 12:27:08;;;;;;;2.47;1.57;;;15.00;99.90;;;;;;5033288;28;20194;-79
2022/09/22 12:29:36;;;;;;;2.10;1.40;;;14.80;99.90;;;;;;5033846;28;20229;-77
2022/09/22 12:32:04;;;;;;;2.00;1.20;;;14.80;99.90;;;;;;5018875;28;20250;-76
2022/09/22 12:34:38;;;;;;;2.40;1.50;;;14.80;99.90;;;;;;5025265;28;20199;-78
2022/09/22 12:37:14;;;;;;;2.50;1.80;;;14.90;99.90;;;;;;5044776;28;20220;-79
2022/09/22 12:39:45;;;;;;;2.03;1.60;;;14.90;99.90;;;;;;5048002;28;20203;-78
2022/09/22 12:42:32;;;;;;;3.30;1.50;;;15.10;99.90;;;;;;5020922;28;20198;-77
2022/09/22 12:45:25;;;;;;;2.20;1.57;;;15.10;99.90;;;;;;5042736;28;20201;-77
2022/09/22 12:47:55;;;;;;;2.03;1.80;;;14.90;99.90;;;;;;5051164;28;20205;-78
2022/09/22 12:50:37;;;;;;;2.70;1.83;;;14.90;99.90;;;;;;5036028;28;20290;-76
2022/09/22 12:53:08;;;;;;;2.20;1.60;;;14.80;99.90;;;;;;5026749;28;20207;-78
2022/09/22 12:55:39;;;;;;;2.27;1.83;;;14.90;99.90;;;;;;5048433;28;20198;-77
2022/09/22 12:58:18;;;;;;;2.10;1.77;;;14.80;99.90;;;;;;5047786;28;20191;-75
2022/09/22 13:00:46;;;;;;;3.63;1.87;;;15.00;99.90;;;;;;5076717;28;20192;-74
2022/09/22 13:03:26;;;;;;;2.87;1.80;;;15.10;99.90;;;;;;5107967;28;20546;-77
2022/09/22 13:06:03;;;;;;;5.23;1.73;;;15.20;99.90;;;;;;5102125;28;20304;-77
2022/09/22 13:08:32;;;;;;;2.10;1.70;;;15.10;99.90;;;;;;5114300;28;20183;-83
2022/09/22 13:11:01;;;;;;;2.00;1.80;;;14.90;99.90;;;;;;5115573;28;20200;-78
2022/09/22 13:13:30;;;;;;;1.90;1.60;;;14.80;99.90;;;;;;5107450;27;20597;-77
2022/09/22 13:16:00;;;;;;;1.90;1.70;;;14.90;99.90;;;;;;5114705;27;20196;-76
2022/09/22 13:18:40;;;;;;;5.17;1.70;;;15.00;99.90;;;;;;5134551;27;20214;-83
2022/09/22 13:21:21;;;;;;;2.00;1.73;;;14.90;99.90;;;;;;5106058;27;20553;-78
2022/09/22 13:23:54;;;;;;;2.07;1.70;;;14.80;99.90;;;;;;5119807;27;20188;-83
2022/09/22 13:26:26;;;;;;;2.90;1.70;;;14.70;99.90;;;;;;5118687;27;20318;-80
2022/09/22 13:29:04;;;;;;;3.27;2.17;;;14.70;99.90;;;;;;5112646;27;20303;-75
2022/09/22 13:31:39;;;;;;;2.70;2.03;;;14.70;99.90;;;;;;5109845;27;20211;-78
2022/09/22 13:34:33;;;;;;;2.87;1.90;;;14.80;99.90;;;;;;5113161;27;20185;-77
2022/09/22 13:37:10;;;;;;;2.60;1.80;;;14.80;99.90;;;;;;5114765;27;20180;-76